sensor_id;sensor_type;location;lat;lon;timestamp;P1;durP1;ratioP1;P2;durP2;ratioP2
13267;SDS011;6702;47.068;15.458;2023-02-01T00:01:07;12.20;;;5.43;;
13267;SDS011;6702;47.068;15.458;2023-02-01T00:04:11;9.40;;;5.10;;
13267;SDS011;6702;47.068;15.458;2023-02-01T00:07:14;5.97;;;5.37;;
13267;SDS011;6702;47.068;15.458;2023-02-01T00:10:18;8.27;;;5.63;;
13267;SDS011;6702;47.068;15.458;2023-02-01T00:13:21;9.33;;;5.57;;
13267;SDS011;6702;47.068;15.458;2023-02-01T00:16:27;10.33;;;5.40;;
13267;SDS011;6702;47.068;15.458;2023-02-01T00:19:31;8.40;;;5.90;;
13267;SDS011;6702;47.068;15.458;2023-02-01T00:22:35;5.93;;;4.50;;
13267;SDS011;6702;47.068;15.458;2023-02-01T00:25:38;9.63;;;4.83;;
13267;SDS011;6702;47.068;15.458;2023-02-01T00:28:42;5.67;;;5.07;;
13267;SDS011;6702;47.068;15.458;2023-02-01T00:31:46;6.30;;;4.90;;
13267;SDS011;6702;47.068;15.458;2023-02-01T00:34:52;8.10;;;5.60;;
13267;SDS011;6702;47.068;15.458;2023-02-01T00:37:55;10.40;;;6.37;;
13267;SDS011;6702;47.068;15.458;2023-02-01T00:41:03;8.13;;;6.07;;
13267;SDS011;6702;47.068;15.458;2023-02-01T00:44:07;6.87;;;5.30;;
13267;SDS011;6702;47.068;15.458;2023-02-01T00:47:12;6.93;;;4.43;;
13267;SDS011;6702;47.068;15.458;2023-02-01T00:50:15;8.50;;;5.90;;
13267;SDS011;6702;47.068;15.458;2023-02-01T00:53:18;7.10;;;5.50;;
13267;SDS011;6702;47.068;15.458;2023-02-01T00:56:22;6.53;;;5.07;;
13267;SDS011;6702;47.068;15.458;2023-02-01T00:59:25;8.83;;;6.50;;
13267;SDS011;6702;47.068;15.458;2023-02-01T01:02:29;6.67;;;5.47;;
13267;SDS011;6702;47.068;15.458;2023-02-01T01:05:32;7.30;;;5.10;;
13267;SDS011;6702;47.068;15.458;2023-02-01T01:08:36;5.03;;;4.37;;
13267;SDS011;6702;47.068;15.458;2023-02-01T01:11:40;5.20;;;4.60;;
13267;SDS011;6702;47.068;15.458;2023-02-01T01:14:43;6.67;;;5.57;;
13267;SDS011;6702;47.068;15.458;2023-02-01T01:17:47;5.97;;;4.73;;
13267;SDS011;6702;47.068;15.458;2023-02-01T01:20:50;9.30;;;4.97;;
13267;SDS011;6702;47.068;15.458;2023-02-01T01:23:54;7.03;;;5.50;;
13267;SDS011;6702;47.068;15.458;2023-02-01T01:26:57;7.23;;;4.43;;
13267;SDS011;6702;47.068;15.458;2023-02-01T01:30:01;12.70;;;6.27;;
13267;SDS011;6702;47.068;15.458;2023-02-01T01:33:05;9.13;;;7.10;;
13267;SDS011;6702;47.068;15.458;2023-02-01T01:36:09;9.60;;;5.67;;
13267;SDS011;6702;47.068;15.458;2023-02-01T01:39:13;7.47;;;5.70;;
13267;SDS011;6702;47.068;15.458;2023-02-01T01:42:16;8.40;;;5.33;;
13267;SDS011;6702;47.068;15.458;2023-02-01T01:45:21;6.10;;;5.40;;
13267;SDS011;6702;47.068;15.458;2023-02-01T01:48:28;7.37;;;5.03;;
13267;SDS011;6702;47.068;15.458;2023-02-01T01:51:35;8.50;;;5.53;;
13267;SDS011;6702;47.068;15.458;2023-02-01T01:54:40;7.13;;;5.07;;
13267;SDS011;6702;47.068;15.458;2023-02-01T01:57:47;6.50;;;4.77;;
13267;SDS011;6702;47.068;15.458;2023-02-01T02:00:57;7.00;;;5.30;;
13267;SDS011;6702;47.068;15.458;2023-02-01T02:04:02;5.50;;;4.90;;
13267;SDS011;6702;47.068;15.458;2023-02-01T02:07:08;6.80;;;6.20;;
13267;SDS011;6702;47.068;15.458;2023-02-01T02:10:14;5.63;;;4.67;;
13267;SDS011;6702;47.068;15.458;2023-02-01T02:13:19;6.63;;;4.47;;
13267;SDS011;6702;47.068;15.458;2023-02-01T02:16:25;6.80;;;5.10;;
13267;SDS011;6702;47.068;15.458;2023-02-01T02:23:29;6.23;;;4.43;;
13267;SDS011;6702;47.068;15.458;2023-02-01T02:27:06;6.00;;;4.83;;
13267;SDS011;6702;47.068;15.458;2023-02-01T02:30:41;5.70;;;4.10;;
13267;SDS011;6702;47.068;15.458;2023-02-01T02:34:00;6.97;;;5.10;;
13267;SDS011;6702;47.068;15.458;2023-02-01T02:37:14;7.27;;;4.30;;
13267;SDS011;6702;47.068;15.458;2023-02-01T02:40:27;6.30;;;5.07;;
13267;SDS011;6702;47.068;15.458;2023-02-01T02:43:37;13.20;;;9.17;;
13267;SDS011;6702;47.068;15.458;2023-02-01T02:47:08;17.70;;;12.97;;
13267;SDS011;6702;47.068;15.458;2023-02-01T02:50:29;7.77;;;6.97;;
13267;SDS011;6702;47.068;15.458;2023-02-01T02:54:07;8.90;;;4.87;;
13267;SDS011;6702;47.068;15.458;2023-02-01T02:57:30;6.70;;;4.80;;
13267;SDS011;6702;47.068;15.458;2023-02-01T03:00:54;5.93;;;4.40;;
13267;SDS011;6702;47.068;15.458;2023-02-01T03:04:16;6.10;;;4.80;;
13267;SDS011;6702;47.068;15.458;2023-02-01T03:10:56;8.00;;;5.00;;
13267;SDS011;6702;47.068;15.458;2023-02-01T03:14:02;8.30;;;5.10;;
13267;SDS011;6702;47.068;15.458;2023-02-01T03:17:08;4.30;;;3.80;;
13267;SDS011;6702;47.068;15.458;2023-02-01T03:20:16;7.07;;;4.80;;
13267;SDS011;6702;47.068;15.458;2023-02-01T03:23:24;4.70;;;4.27;;
13267;SDS011;6702;47.068;15.458;2023-02-01T03:26:33;5.33;;;4.73;;
13267;SDS011;6702;47.068;15.458;2023-02-01T03:29:43;3.40;;;3.10;;
13267;SDS011;6702;47.068;15.458;2023-02-01T03:32:51;6.30;;;4.47;;
13267;SDS011;6702;47.068;15.458;2023-02-01T03:36:03;6.43;;;4.13;;
13267;SDS011;6702;47.068;15.458;2023-02-01T03:39:17;5.83;;;4.47;;
13267;SDS011;6702;47.068;15.458;2023-02-01T03:42:27;7.00;;;4.47;;
13267;SDS011;6702;47.068;15.458;2023-02-01T03:45:35;5.17;;;4.67;;
13267;SDS011;6702;47.068;15.458;2023-02-01T03:48:43;5.37;;;4.87;;
13267;SDS011;6702;47.068;15.458;2023-02-01T03:51:47;7.80;;;4.53;;
13267;SDS011;6702;47.068;15.458;2023-02-01T03:54:54;8.50;;;5.20;;
13267;SDS011;6702;47.068;15.458;2023-02-01T03:58:01;5.30;;;3.90;;
13267;SDS011;6702;47.068;15.458;2023-02-01T04:01:08;6.17;;;4.77;;
13267;SDS011;6702;47.068;15.458;2023-02-01T04:04:12;4.90;;;4.40;;
13267;SDS011;6702;47.068;15.458;2023-02-01T04:07:21;7.90;;;4.50;;
13267;SDS011;6702;47.068;15.458;2023-02-01T04:10:26;5.20;;;4.30;;
13267;SDS011;6702;47.068;15.458;2023-02-01T04:13:29;5.93;;;4.43;;
13267;SDS011;6702;47.068;15.458;2023-02-01T04:16:32;5.43;;;4.20;;
13267;SDS011;6702;47.068;15.458;2023-02-01T04:19:36;6.10;;;4.60;;
13267;SDS011;6702;47.068;15.458;2023-02-01T04:22:39;5.43;;;4.87;;
13267;SDS011;6702;47.068;15.458;2023-02-01T04:25:43;6.47;;;4.90;;
13267;SDS011;6702;47.068;15.458;2023-02-01T04:28:47;7.17;;;5.47;;
13267;SDS011;6702;47.068;15.458;2023-02-01T04:31:50;5.50;;;4.97;;
13267;SDS011;6702;47.068;15.458;2023-02-01T04:34:53;8.30;;;5.93;;
13267;SDS011;6702;47.068;15.458;2023-02-01T04:37:56;5.93;;;5.20;;
13267;SDS011;6702;47.068;15.458;2023-02-01T04:41:01;7.40;;;4.73;;
13267;SDS011;6702;47.068;15.458;2023-02-01T04:44:04;6.43;;;5.10;;
13267;SDS011;6702;47.068;15.458;2023-02-01T04:47:07;7.90;;;4.57;;
13267;SDS011;6702;47.068;15.458;2023-02-01T04:50:11;6.07;;;5.10;;
13267;SDS011;6702;47.068;15.458;2023-02-01T04:53:14;5.03;;;4.53;;
13267;SDS011;6702;47.068;15.458;2023-02-01T04:56:18;5.07;;;4.60;;
13267;SDS011;6702;47.068;15.458;2023-02-01T04:59:22;6.00;;;5.47;;
13267;SDS011;6702;47.068;15.458;2023-02-01T05:02:25;10.57;;;6.17;;
13267;SDS011;6702;47.068;15.458;2023-02-01T05:05:28;6.17;;;4.60;;
13267;SDS011;6702;47.068;15.458;2023-02-01T05:08:32;8.93;;;4.90;;
13267;SDS011;6702;47.068;15.458;2023-02-01T05:11:40;10.70;;;5.27;;
13267;SDS011;6702;47.068;15.458;2023-02-01T05:15:01;8.67;;;5.13;;
13267;SDS011;6702;47.068;15.458;2023-02-01T05:18:04;6.03;;;5.10;;
13267;SDS011;6702;47.068;15.458;2023-02-01T05:21:07;10.10;;;6.53;;
13267;SDS011;6702;47.068;15.458;2023-02-01T05:24:10;11.03;;;5.57;;
13267;SDS011;6702;47.068;15.458;2023-02-01T05:27:19;5.80;;;4.43;;
13267;SDS011;6702;47.068;15.458;2023-02-01T05:30:22;7.17;;;5.20;;
13267;SDS011;6702;47.068;15.458;2023-02-01T05:33:25;11.20;;;10.30;;
13267;SDS011;6702;47.068;15.458;2023-02-01T05:36:29;6.93;;;5.00;;
13267;SDS011;6702;47.068;15.458;2023-02-01T05:39:32;5.27;;;4.63;;
13267;SDS011;6702;47.068;15.458;2023-02-01T05:42:37;6.40;;;3.80;;
13267;SDS011;6702;47.068;15.458;2023-02-01T05:45:40;9.60;;;4.77;;
13267;SDS011;6702;47.068;15.458;2023-02-01T05:48:43;5.43;;;4.00;;
13267;SDS011;6702;47.068;15.458;2023-02-01T05:51:46;7.03;;;4.23;;
13267;SDS011;6702;47.068;15.458;2023-02-01T05:54:49;5.80;;;4.03;;
13267;SDS011;6702;47.068;15.458;2023-02-01T05:57:55;7.97;;;4.77;;
13267;SDS011;6702;47.068;15.458;2023-02-01T06:00:58;5.87;;;4.30;;
13267;SDS011;6702;47.068;15.458;2023-02-01T06:04:02;6.30;;;4.37;;
13267;SDS011;6702;47.068;15.458;2023-02-01T06:07:05;4.87;;;4.40;;
13267;SDS011;6702;47.068;15.458;2023-02-01T06:10:10;8.97;;;3.90;;
13267;SDS011;6702;47.068;15.458;2023-02-01T06:13:15;4.93;;;4.53;;
13267;SDS011;6702;47.068;15.458;2023-02-01T06:16:18;5.37;;;3.87;;
13267;SDS011;6702;47.068;15.458;2023-02-01T06:19:21;7.53;;;4.90;;
13267;SDS011;6702;47.068;15.458;2023-02-01T06:22:24;5.70;;;4.33;;
13267;SDS011;6702;47.068;15.458;2023-02-01T06:25:28;5.27;;;4.23;;
13267;SDS011;6702;47.068;15.458;2023-02-01T06:28:32;5.17;;;4.40;;
13267;SDS011;6702;47.068;15.458;2023-02-01T06:31:36;7.03;;;4.90;;
13267;SDS011;6702;47.068;15.458;2023-02-01T06:34:39;8.80;;;5.80;;
13267;SDS011;6702;47.068;15.458;2023-02-01T06:37:42;7.60;;;5.90;;
13267;SDS011;6702;47.068;15.458;2023-02-01T06:40:46;8.00;;;5.30;;
13267;SDS011;6702;47.068;15.458;2023-02-01T06:43:56;6.03;;;3.83;;
13267;SDS011;6702;47.068;15.458;2023-02-01T06:46:59;7.03;;;4.33;;
13267;SDS011;6702;47.068;15.458;2023-02-01T06:50:02;4.80;;;4.03;;
13267;SDS011;6702;47.068;15.458;2023-02-01T06:53:06;5.77;;;4.40;;
13267;SDS011;6702;47.068;15.458;2023-02-01T06:56:09;7.90;;;5.17;;
13267;SDS011;6702;47.068;15.458;2023-02-01T06:59:14;7.93;;;4.90;;
13267;SDS011;6702;47.068;15.458;2023-02-01T07:02:17;5.63;;;3.90;;
13267;SDS011;6702;47.068;15.458;2023-02-01T07:05:21;6.93;;;3.93;;
13267;SDS011;6702;47.068;15.458;2023-02-01T07:08:24;5.70;;;4.70;;
13267;SDS011;6702;47.068;15.458;2023-02-01T07:11:29;6.87;;;4.27;;
13267;SDS011;6702;47.068;15.458;2023-02-01T07:14:34;5.13;;;4.53;;
13267;SDS011;6702;47.068;15.458;2023-02-01T07:17:37;6.80;;;5.53;;
13267;SDS011;6702;47.068;15.458;2023-02-01T07:20:40;7.50;;;5.43;;
13267;SDS011;6702;47.068;15.458;2023-02-01T07:23:44;7.23;;;5.23;;
13267;SDS011;6702;47.068;15.458;2023-02-01T07:26:47;6.30;;;4.33;;
13267;SDS011;6702;47.068;15.458;2023-02-01T07:29:53;7.73;;;5.50;;
13267;SDS011;6702;47.068;15.458;2023-02-01T07:32:57;10.00;;;5.20;;
13267;SDS011;6702;47.068;15.458;2023-02-01T07:36:03;6.07;;;4.77;;
13267;SDS011;6702;47.068;15.458;2023-02-01T07:39:07;7.10;;;4.80;;
13267;SDS011;6702;47.068;15.458;2023-02-01T07:42:10;6.20;;;5.30;;
13267;SDS011;6702;47.068;15.458;2023-02-01T07:45:15;6.13;;;4.90;;
13267;SDS011;6702;47.068;15.458;2023-02-01T07:48:22;5.73;;;4.30;;
13267;SDS011;6702;47.068;15.458;2023-02-01T07:51:26;6.60;;;4.93;;
13267;SDS011;6702;47.068;15.458;2023-02-01T07:54:29;5.90;;;4.10;;
13267;SDS011;6702;47.068;15.458;2023-02-01T07:57:32;8.10;;;5.23;;
13267;SDS011;6702;47.068;15.458;2023-02-01T08:00:37;7.60;;;4.53;;
13267;SDS011;6702;47.068;15.458;2023-02-01T08:03:58;9.30;;;5.23;;
13267;SDS011;6702;47.068;15.458;2023-02-01T08:07:03;6.03;;;5.00;;
13267;SDS011;6702;47.068;15.458;2023-02-01T08:10:06;6.20;;;4.70;;
13267;SDS011;6702;47.068;15.458;2023-02-01T08:13:12;8.43;;;5.07;;
13267;SDS011;6702;47.068;15.458;2023-02-01T08:16:18;6.13;;;5.30;;
13267;SDS011;6702;47.068;15.458;2023-02-01T08:19:22;7.47;;;4.40;;
13267;SDS011;6702;47.068;15.458;2023-02-01T08:22:25;7.23;;;4.37;;
13267;SDS011;6702;47.068;15.458;2023-02-01T08:25:28;5.67;;;4.30;;
13267;SDS011;6702;47.068;15.458;2023-02-01T08:28:33;5.10;;;4.50;;
13267;SDS011;6702;47.068;15.458;2023-02-01T08:31:39;8.27;;;4.87;;
13267;SDS011;6702;47.068;15.458;2023-02-01T08:34:43;7.83;;;5.20;;
13267;SDS011;6702;47.068;15.458;2023-02-01T08:37:46;5.43;;;4.93;;
13267;SDS011;6702;47.068;15.458;2023-02-01T08:40:49;8.90;;;5.30;;
13267;SDS011;6702;47.068;15.458;2023-02-01T08:43:52;8.50;;;6.43;;
13267;SDS011;6702;47.068;15.458;2023-02-01T08:46:57;14.00;;;7.37;;
13267;SDS011;6702;47.068;15.458;2023-02-01T08:50:01;7.80;;;6.17;;
13267;SDS011;6702;47.068;15.458;2023-02-01T08:53:04;15.30;;;6.53;;
13267;SDS011;6702;47.068;15.458;2023-02-01T08:56:07;7.70;;;6.93;;
13267;SDS011;6702;47.068;15.458;2023-02-01T08:59:11;11.13;;;5.80;;
13267;SDS011;6702;47.068;15.458;2023-02-01T09:02:16;10.50;;;6.00;;
13267;SDS011;6702;47.068;15.458;2023-02-01T09:05:19;11.60;;;7.17;;
13267;SDS011;6702;47.068;15.458;2023-02-01T09:08:24;12.87;;;6.53;;
13267;SDS011;6702;47.068;15.458;2023-02-01T09:11:27;11.10;;;6.10;;
13267;SDS011;6702;47.068;15.458;2023-02-01T09:14:30;6.43;;;5.30;;
13267;SDS011;6702;47.068;15.458;2023-02-01T09:17:35;7.53;;;6.67;;
13267;SDS011;6702;47.068;15.458;2023-02-01T09:20:39;9.70;;;5.97;;
13267;SDS011;6702;47.068;15.458;2023-02-01T09:23:43;6.33;;;4.40;;
13267;SDS011;6702;47.068;15.458;2023-02-01T09:26:46;6.53;;;4.83;;
13267;SDS011;6702;47.068;15.458;2023-02-01T09:29:50;11.27;;;6.17;;
13267;SDS011;6702;47.068;15.458;2023-02-01T09:32:55;9.63;;;5.70;;
13267;SDS011;6702;47.068;15.458;2023-02-01T09:35:58;12.97;;;5.93;;
13267;SDS011;6702;47.068;15.458;2023-02-01T09:39:02;9.77;;;5.90;;
13267;SDS011;6702;47.068;15.458;2023-02-01T09:42:08;10.77;;;7.33;;
13267;SDS011;6702;47.068;15.458;2023-02-01T09:45:22;15.50;;;8.60;;
13267;SDS011;6702;47.068;15.458;2023-02-01T09:48:34;11.00;;;6.70;;
13267;SDS011;6702;47.068;15.458;2023-02-01T09:51:41;8.70;;;7.00;;
13267;SDS011;6702;47.068;15.458;2023-02-01T09:54:49;11.20;;;6.47;;
13267;SDS011;6702;47.068;15.458;2023-02-01T09:57:59;9.70;;;7.67;;
13267;SDS011;6702;47.068;15.458;2023-02-01T10:01:09;14.90;;;7.67;;
13267;SDS011;6702;47.068;15.458;2023-02-01T10:04:20;19.90;;;7.53;;
13267;SDS011;6702;47.068;15.458;2023-02-01T10:07:26;10.60;;;6.37;;
13267;SDS011;6702;47.068;15.458;2023-02-01T10:10:38;11.30;;;5.03;;
13267;SDS011;6702;47.068;15.458;2023-02-01T10:13:49;9.20;;;6.20;;
13267;SDS011;6702;47.068;15.458;2023-02-01T10:17:03;6.07;;;5.47;;
13267;SDS011;6702;47.068;15.458;2023-02-01T10:20:22;9.57;;;7.30;;
13267;SDS011;6702;47.068;15.458;2023-02-01T10:23:42;7.93;;;6.80;;
13267;SDS011;6702;47.068;15.458;2023-02-01T10:26:56;10.02;;;7.53;;
13267;SDS011;6702;47.068;15.458;2023-02-01T10:30:06;6.82;;;6.13;;
13267;SDS011;6702;47.068;15.458;2023-02-01T10:33:22;8.32;;;6.78;;
13267;SDS011;6702;47.068;15.458;2023-02-01T10:36:30;6.18;;;5.57;;
13267;SDS011;6702;47.068;15.458;2023-02-01T10:39:37;5.07;;;4.57;;
13267;SDS011;6702;47.068;15.458;2023-02-01T10:42:41;6.30;;;4.47;;
13267;SDS011;6702;47.068;15.458;2023-02-01T10:45:45;5.47;;;4.20;;
13267;SDS011;6702;47.068;15.458;2023-02-01T10:48:48;5.78;;;4.00;;
13267;SDS011;6702;47.068;15.458;2023-02-01T10:51:54;8.38;;;3.60;;
13267;SDS011;6702;47.068;15.458;2023-02-01T10:55:27;4.45;;;4.00;;
13267;SDS011;6702;47.068;15.458;2023-02-01T10:58:45;4.18;;;3.25;;
13267;SDS011;6702;47.068;15.458;2023-02-01T11:01:49;4.68;;;2.75;;
13267;SDS011;6702;47.068;15.458;2023-02-01T11:05:01;4.80;;;3.05;;
13267;SDS011;6702;47.068;15.458;2023-02-01T11:08:12;2.88;;;2.67;;
13267;SDS011;6702;47.068;15.458;2023-02-01T11:11:19;3.20;;;2.83;;
13267;SDS011;6702;47.068;15.458;2023-02-01T11:14:27;3.97;;;3.58;;
13267;SDS011;6702;47.068;15.458;2023-02-01T11:17:39;6.43;;;4.35;;
13267;SDS011;6702;47.068;15.458;2023-02-01T11:20:46;6.68;;;4.35;;
13267;SDS011;6702;47.068;15.458;2023-02-01T11:23:54;5.43;;;3.78;;
13267;SDS011;6702;47.068;15.458;2023-02-01T11:27:03;9.10;;;4.63;;
13267;SDS011;6702;47.068;15.458;2023-02-01T11:30:14;5.65;;;3.72;;
13267;SDS011;6702;47.068;15.458;2023-02-01T11:33:19;5.05;;;3.00;;
13267;SDS011;6702;47.068;15.458;2023-02-01T11:36:30;5.22;;;3.20;;
13267;SDS011;6702;47.068;15.458;2023-02-01T11:39:36;4.30;;;2.85;;
13267;SDS011;6702;47.068;15.458;2023-02-01T11:42:39;3.83;;;3.03;;
13267;SDS011;6702;47.068;15.458;2023-02-01T11:45:57;4.00;;;2.97;;
13267;SDS011;6702;47.068;15.458;2023-02-01T11:49:13;4.38;;;3.25;;
13267;SDS011;6702;47.068;15.458;2023-02-01T11:52:29;7.38;;;4.18;;
13267;SDS011;6702;47.068;15.458;2023-02-01T11:56:01;10.23;;;5.20;;
13267;SDS011;6702;47.068;15.458;2023-02-01T11:59:14;6.15;;;3.00;;
13267;SDS011;6702;47.068;15.458;2023-02-01T12:05:58;9.65;;;2.38;;
13267;SDS011;6702;47.068;15.458;2023-02-01T12:09:13;2.45;;;0.77;;
13267;SDS011;6702;47.068;15.458;2023-02-01T12:12:28;2.95;;;0.85;;
13267;SDS011;6702;47.068;15.458;2023-02-01T12:15:46;2.17;;;1.25;;
13267;SDS011;6702;47.068;15.458;2023-02-01T12:19:11;2.90;;;1.13;;
13267;SDS011;6702;47.068;15.458;2023-02-01T12:22:28;1.77;;;0.80;;
13267;SDS011;6702;47.068;15.458;2023-02-01T12:25:42;1.60;;;0.85;;
13267;SDS011;6702;47.068;15.458;2023-02-01T12:29:07;1.77;;;0.50;;
13267;SDS011;6702;47.068;15.458;2023-02-01T12:32:32;2.13;;;0.80;;
13267;SDS011;6702;47.068;15.458;2023-02-01T12:35:51;1.67;;;0.80;;
13267;SDS011;6702;47.068;15.458;2023-02-01T12:39:12;1.37;;;0.60;;
13267;SDS011;6702;47.068;15.458;2023-02-01T12:42:26;5.27;;;1.07;;
13267;SDS011;6702;47.068;15.458;2023-02-01T12:45:36;1.83;;;0.47;;
13267;SDS011;6702;47.068;15.458;2023-02-01T12:48:48;2.63;;;0.67;;
13267;SDS011;6702;47.068;15.458;2023-02-01T12:51:58;1.10;;;0.80;;
13267;SDS011;6702;47.068;15.458;2023-02-01T12:55:07;1.53;;;0.80;;
13267;SDS011;6702;47.068;15.458;2023-02-01T12:58:18;1.43;;;0.50;;
13267;SDS011;6702;47.068;15.458;2023-02-01T13:01:27;0.77;;;0.40;;
13267;SDS011;6702;47.068;15.458;2023-02-01T13:04:37;1.00;;;0.60;;
13267;SDS011;6702;47.068;15.458;2023-02-01T13:07:47;1.37;;;0.60;;
13267;SDS011;6702;47.068;15.458;2023-02-01T13:10:56;0.80;;;0.47;;
13267;SDS011;6702;47.068;15.458;2023-02-01T13:14:03;0.83;;;0.60;;
13267;SDS011;6702;47.068;15.458;2023-02-01T13:17:17;1.20;;;0.50;;
13267;SDS011;6702;47.068;15.458;2023-02-01T13:20:26;1.83;;;0.73;;
13267;SDS011;6702;47.068;15.458;2023-02-01T13:23:34;4.33;;;0.90;;
13267;SDS011;6702;47.068;15.458;2023-02-01T13:26:40;1.43;;;0.60;;
13267;SDS011;6702;47.068;15.458;2023-02-01T13:29:45;1.93;;;0.70;;
13267;SDS011;6702;47.068;15.458;2023-02-01T13:33:03;0.80;;;0.40;;
13267;SDS011;6702;47.068;15.458;2023-02-01T13:36:43;2.40;;;0.97;;
13267;SDS011;6702;47.068;15.458;2023-02-01T13:39:58;1.70;;;1.20;;
13267;SDS011;6702;47.068;15.458;2023-02-01T13:43:12;0.90;;;0.50;;
13267;SDS011;6702;47.068;15.458;2023-02-01T13:46:18;1.73;;;0.57;;
13267;SDS011;6702;47.068;15.458;2023-02-01T13:49:24;1.17;;;0.37;;
13267;SDS011;6702;47.068;15.458;2023-02-01T13:52:36;1.33;;;0.40;;
13267;SDS011;6702;47.068;15.458;2023-02-01T13:55:41;0.90;;;0.70;;
13267;SDS011;6702;47.068;15.458;2023-02-01T13:58:47;1.60;;;0.43;;
13267;SDS011;6702;47.068;15.458;2023-02-01T14:01:52;1.20;;;0.73;;
13267;SDS011;6702;47.068;15.458;2023-02-01T14:04:57;0.90;;;0.50;;
13267;SDS011;6702;47.068;15.458;2023-02-01T14:08:02;1.10;;;0.60;;
13267;SDS011;6702;47.068;15.458;2023-02-01T14:11:31;1.50;;;0.70;;
13267;SDS011;6702;47.068;15.458;2023-02-01T14:14:37;1.83;;;0.50;;
13267;SDS011;6702;47.068;15.458;2023-02-01T14:17:43;1.70;;;0.57;;
13267;SDS011;6702;47.068;15.458;2023-02-01T14:20:48;2.20;;;0.97;;
13267;SDS011;6702;47.068;15.458;2023-02-01T14:23:56;0.87;;;0.50;;
13267;SDS011;6702;47.068;15.458;2023-02-01T14:27:06;1.37;;;0.60;;
13267;SDS011;6702;47.068;15.458;2023-02-01T14:30:21;0.60;;;0.40;;
13267;SDS011;6702;47.068;15.458;2023-02-01T14:33:27;0.93;;;0.60;;
13267;SDS011;6702;47.068;15.458;2023-02-01T14:36:41;0.80;;;0.60;;
13267;SDS011;6702;47.068;15.458;2023-02-01T14:39:50;0.80;;;0.63;;
13267;SDS011;6702;47.068;15.458;2023-02-01T14:42:57;1.47;;;0.80;;
13267;SDS011;6702;47.068;15.458;2023-02-01T14:46:00;1.53;;;0.80;;
13267;SDS011;6702;47.068;15.458;2023-02-01T14:49:05;1.23;;;0.60;;
13267;SDS011;6702;47.068;15.458;2023-02-01T14:52:11;0.90;;;0.70;;
13267;SDS011;6702;47.068;15.458;2023-02-01T14:55:24;0.70;;;0.57;;
13267;SDS011;6702;47.068;15.458;2023-02-01T14:58:35;0.87;;;0.70;;
13267;SDS011;6702;47.068;15.458;2023-02-01T15:01:46;2.20;;;0.97;;
13267;SDS011;6702;47.068;15.458;2023-02-01T15:04:54;1.77;;;0.90;;
13267;SDS011;6702;47.068;15.458;2023-02-01T15:08:03;1.80;;;0.70;;
13267;SDS011;6702;47.068;15.458;2023-02-01T15:11:11;0.97;;;0.90;;
13267;SDS011;6702;47.068;15.458;2023-02-01T15:14:18;1.20;;;1.00;;
13267;SDS011;6702;47.068;15.458;2023-02-01T15:17:22;0.70;;;0.70;;
13267;SDS011;6702;47.068;15.458;2023-02-01T15:20:27;1.83;;;1.20;;
13267;SDS011;6702;47.068;15.458;2023-02-01T15:23:33;2.10;;;1.27;;
13267;SDS011;6702;47.068;15.458;2023-02-01T15:26:36;4.77;;;1.10;;
13267;SDS011;6702;47.068;15.458;2023-02-01T15:29:39;3.90;;;0.70;;
13267;SDS011;6702;47.068;15.458;2023-02-01T15:32:42;1.63;;;1.00;;
13267;SDS011;6702;47.068;15.458;2023-02-01T15:35:47;1.83;;;0.93;;
13267;SDS011;6702;47.068;15.458;2023-02-01T15:42:20;1.57;;;1.00;;
13267;SDS011;6702;47.068;15.458;2023-02-01T15:45:25;0.90;;;0.80;;
13267;SDS011;6702;47.068;15.458;2023-02-01T15:48:30;1.63;;;1.33;;
13267;SDS011;6702;47.068;15.458;2023-02-01T15:51:37;5.17;;;4.67;;
13267;SDS011;6702;47.068;15.458;2023-02-01T15:54:49;1.20;;;1.00;;
13267;SDS011;6702;47.068;15.458;2023-02-01T15:57:55;1.13;;;0.90;;
13267;SDS011;6702;47.068;15.458;2023-02-01T16:00:59;1.77;;;1.00;;
13267;SDS011;6702;47.068;15.458;2023-02-01T16:04:10;2.80;;;1.43;;
13267;SDS011;6702;47.068;15.458;2023-02-01T16:07:24;0.80;;;0.73;;
13267;SDS011;6702;47.068;15.458;2023-02-01T16:10:31;1.73;;;1.17;;
13267;SDS011;6702;47.068;15.458;2023-02-01T16:13:40;1.63;;;1.33;;
13267;SDS011;6702;47.068;15.458;2023-02-01T16:16:43;1.33;;;1.23;;
13267;SDS011;6702;47.068;15.458;2023-02-01T16:19:46;2.00;;;1.40;;
13267;SDS011;6702;47.068;15.458;2023-02-01T16:22:50;2.27;;;1.37;;
13267;SDS011;6702;47.068;15.458;2023-02-01T16:25:54;2.40;;;1.40;;
13267;SDS011;6702;47.068;15.458;2023-02-01T16:28:58;2.10;;;1.67;;
13267;SDS011;6702;47.068;15.458;2023-02-01T16:32:05;3.57;;;3.27;;
13267;SDS011;6702;47.068;15.458;2023-02-01T16:35:10;2.23;;;2.03;;
13267;SDS011;6702;47.068;15.458;2023-02-01T16:38:22;3.63;;;1.43;;
13267;SDS011;6702;47.068;15.458;2023-02-01T16:41:29;4.27;;;1.47;;
13267;SDS011;6702;47.068;15.458;2023-02-01T16:44:32;2.30;;;1.83;;
13267;SDS011;6702;47.068;15.458;2023-02-01T16:47:37;11.10;;;7.07;;
13267;SDS011;6702;47.068;15.458;2023-02-01T16:50:45;4.40;;;3.20;;
13267;SDS011;6702;47.068;15.458;2023-02-01T16:53:50;3.17;;;2.17;;
13267;SDS011;6702;47.068;15.458;2023-02-01T16:56:57;1.50;;;1.40;;
13267;SDS011;6702;47.068;15.458;2023-02-01T17:00:01;2.00;;;1.30;;
13267;SDS011;6702;47.068;15.458;2023-02-01T17:03:18;1.63;;;1.53;;
13267;SDS011;6702;47.068;15.458;2023-02-01T17:06:23;2.87;;;1.87;;
13267;SDS011;6702;47.068;15.458;2023-02-01T17:09:29;6.00;;;1.80;;
13267;SDS011;6702;47.068;15.458;2023-02-01T17:12:35;3.53;;;2.80;;
13267;SDS011;6702;47.068;15.458;2023-02-01T17:15:38;1.80;;;1.70;;
13267;SDS011;6702;47.068;15.458;2023-02-01T17:18:46;2.30;;;1.43;;
13267;SDS011;6702;47.068;15.458;2023-02-01T17:21:56;1.63;;;1.37;;
13267;SDS011;6702;47.068;15.458;2023-02-01T17:25:00;2.90;;;1.63;;
13267;SDS011;6702;47.068;15.458;2023-02-01T17:28:08;2.03;;;1.40;;
13267;SDS011;6702;47.068;15.458;2023-02-01T17:31:12;1.30;;;1.20;;
13267;SDS011;6702;47.068;15.458;2023-02-01T17:34:17;1.90;;;1.70;;
13267;SDS011;6702;47.068;15.458;2023-02-01T17:37:23;12.57;;;7.47;;
13267;SDS011;6702;47.068;15.458;2023-02-01T17:40:30;6.93;;;4.23;;
13267;SDS011;6702;47.068;15.458;2023-02-01T17:43:38;8.80;;;5.80;;
13267;SDS011;6702;47.068;15.458;2023-02-01T17:46:42;15.13;;;11.60;;
13267;SDS011;6702;47.068;15.458;2023-02-01T17:49:46;4.87;;;2.53;;
13267;SDS011;6702;47.068;15.458;2023-02-01T17:52:58;3.67;;;1.83;;
13267;SDS011;6702;47.068;15.458;2023-02-01T17:56:03;3.40;;;2.00;;
13267;SDS011;6702;47.068;15.458;2023-02-01T17:59:08;4.37;;;3.77;;
13267;SDS011;6702;47.068;15.458;2023-02-01T18:02:17;5.00;;;3.27;;
13267;SDS011;6702;47.068;15.458;2023-02-01T18:05:27;2.57;;;2.00;;
13267;SDS011;6702;47.068;15.458;2023-02-01T18:08:37;2.20;;;2.00;;
13267;SDS011;6702;47.068;15.458;2023-02-01T18:11:42;4.30;;;2.60;;
13267;SDS011;6702;47.068;15.458;2023-02-01T18:14:47;4.80;;;3.00;;
13267;SDS011;6702;47.068;15.458;2023-02-01T18:17:53;9.77;;;7.10;;
13267;SDS011;6702;47.068;15.458;2023-02-01T18:20:58;12.50;;;7.50;;
13267;SDS011;6702;47.068;15.458;2023-02-01T18:24:03;22.60;;;12.07;;
13267;SDS011;6702;47.068;15.458;2023-02-01T18:27:08;27.17;;;13.47;;
13267;SDS011;6702;47.068;15.458;2023-02-01T18:30:14;31.13;;;13.87;;
13267;SDS011;6702;47.068;15.458;2023-02-01T18:33:22;99.53;;;37.20;;
13267;SDS011;6702;47.068;15.458;2023-02-01T18:36:26;21.90;;;9.73;;
13267;SDS011;6702;47.068;15.458;2023-02-01T18:39:31;36.87;;;17.97;;
13267;SDS011;6702;47.068;15.458;2023-02-01T18:42:39;5.50;;;3.33;;
13267;SDS011;6702;47.068;15.458;2023-02-01T18:45:47;5.10;;;3.90;;
13267;SDS011;6702;47.068;15.458;2023-02-01T18:49:01;5.00;;;4.13;;
13267;SDS011;6702;47.068;15.458;2023-02-01T18:52:06;9.10;;;5.30;;
13267;SDS011;6702;47.068;15.458;2023-02-01T18:55:13;5.00;;;2.73;;
13267;SDS011;6702;47.068;15.458;2023-02-01T18:58:23;2.67;;;2.17;;
13267;SDS011;6702;47.068;15.458;2023-02-01T19:01:31;2.27;;;2.00;;